MDT,Max TemperatureF,Mean TemperatureF,Min TemperatureF,Max Dew PointF,MeanDew PointF,Min DewpointF,Max Humidity, Mean Humidity, Min Humidity, Max Sea Level PressureIn, Mean Sea Level PressureIn, Min Sea Level PressureIn, Max VisibilityMiles, Mean VisibilityMiles, Min VisibilityMiles, Max Wind SpeedMPH, Mean Wind SpeedMPH, Max Gust SpeedMPH,PrecipitationIn, CloudCover, Events, WindDirDegrees
2012-10-1,63,51,38,41,33,27,86,56,25,30.25,30.14,30.03,10,10,10,16,8,23,T,1,Rain,333
2012-10-2,75,57,38,31,24,15,70,40,10,29.99,29.84,29.71,10,10,10,26,14,35,0.00,0,,247
2012-10-3,71,50,29,29,22,-5,72,39,5,30.34,29.90,29.68,10,10,10,40,19,54,0.00,2,,296
2012-10-4,42,32,21,24,22,18,88,69,50,30.33,30.22,30.13,10,10,10,28,14,32,0.00,3,,129
2012-10-5,42,34,26,24,22,21,85,65,45,30.25,30.17,30.04,10,10,10,33,12,40,0.00,6,,84
2012-10-6,33,25,17,25,21,13,92,67,41,30.34,30.22,30.12,10,7,0,16,9,21,0.02,6,Fog-Snow,59
2012-10-7,49,28,6,17,10,5,100,59,18,30.33,30.17,30.04,10,8,0,22,7,30,0.00,1,Fog,229
2012-10-8,62,44,25,10,5,2,42,26,10,30.05,29.86,29.73,10,10,10,30,16,39,0.00,0,,241
2012-10-9,52,39,26,30,20,4,92,54,15,30.12,29.91,29.71,10,10,10,22,11,28,0.00,0,,14
2012-10-10,67,43,19,26,18,9,100,56,11,30.17,30.01,29.83,10,10,7,28,10,37,0.00,0,,242
2012-10-11,65,50,35,33,31,25,76,53,30,30.16,29.93,29.82,10,10,10,29,16,36,T,4,Thunderstorm,222
2012-10-12,68,49,30,43,33,28,100,63,26,30.05,29.90,29.72,10,10,10,32,11,38,0.06,2,Rain,192
2012-10-13,56,45,33,41,35,32,100,73,46,30.12,29.93,29.70,10,8,1,26,9,32,0.40,7,Rain-Snow,256
2012-10-14,58,47,35,36,33,31,92,64,36,30.20,30.12,30.08,10,10,10,26,15,31,0.00,3,,259
2012-10-15,66,53,39,32,28,22,70,45,19,30.04,29.90,29.77,10,10,10,32,17,41,0.00,0,,242
2012-10-16,64,51,38,42,32,26,70,49,28,29.96,29.63,29.44,10,10,7,45,22,55,0.04,3,Rain,258
2012-10-17,44,34,24,24,13,6,69,46,22,30.02,29.80,29.57,10,10,10,44,25,52,0.00,2,,290
2012-10-18,53,39,24,19,13,5,60,37,13,30.15,30.07,30.02,10,10,10,39,16,48,0.00,0,,314
2012-10-19,63,46,28,22,19,15,69,43,17,30.04,29.89,29.72,10,10,10,32,17,37,0.00,0,,255
2012-10-20,69,54,38,20,19,17,44,30,15,29.75,29.64,29.52,10,10,10,28,15,32,0.00,3,,234
2012-10-21,68,50,31,34,22,13,70,41,12,29.82,29.68,29.60,10,10,10,26,17,33,0.00,1,,186
2012-10-22,66,51,35,34,28,21,89,54,19,29.80,29.66,29.53,10,10,10,31,13,44,0.00,1,,190
2012-10-23,62,46,30,29,25,19,85,53,21,29.82,29.64,29.49,10,10,10,39,15,49,0.00,1,,262
2012-10-24,39,30,21,34,28,19,100,85,70,30.03,29.88,29.76,10,4,0,30,11,36,0.34,8,Fog-Rain-Snow,49
2012-10-25,28,21,14,20,18,14,100,88,75,30.32,30.15,30.02,10,6,0,13,5,15,0.14,6,Fog-Snow,351
2012-10-26,25,14,3,18,13,5,100,80,59,30.54,30.31,30.20,10,4,0,15,5,16,0.01,5,Fog-Snow,68
2012-10-27,34,28,21,26,20,12,84,74,64,30.20,30.14,30.08,10,10,10,28,15,32,0.00,5,,246
2012-10-28,44,37,30,33,29,24,85,74,62,30.13,30.05,30.00,10,10,10,29,15,36,0.00,3,,228
2012-10-29,56,46,36,35,32,30,76,61,46,30.07,30.03,29.98,10,10,10,28,16,35,0.00,1,,249
2012-10-30,59,46,33,32,29,25,82,56,30,30.14,30.07,29.97,10,10,10,25,12,30,0.00,0,,254
2012-10-31,60,45,29,30,27,24,82,55,27,30.17,30.09,30.01,10,10,10,18,7,23,0.00,0,,219